createdAt,value
2018-01-28T00:00:21.583Z,9.27
2018-01-28T00:02:49.111Z,9.63
2018-01-28T00:05:17.479Z,12.23
2018-01-28T00:07:44.979Z,12.13
2018-01-28T00:10:12.566Z,10.10
2018-01-28T00:12:40.131Z,9.68
2018-01-28T00:15:07.641Z,10.95
2018-01-28T00:17:36.186Z,8.95
2018-01-28T00:20:03.702Z,7.85
2018-01-28T00:22:31.226Z,9.73
2018-01-28T00:24:59.488Z,13.62
2018-01-28T00:27:27.021Z,10.15
2018-01-28T00:29:54.617Z,15.63
2018-01-28T00:32:22.157Z,12.82
2018-01-28T00:34:49.733Z,10.65
2018-01-28T00:37:17.352Z,10.25
2018-01-28T00:39:44.885Z,14.90
2018-01-28T00:42:12.428Z,11.38
2018-01-28T00:44:40.710Z,12.05
2018-01-28T00:47:09.086Z,13.07
2018-01-28T00:49:37.384Z,12.43
2018-01-28T00:52:04.960Z,15.40
2018-01-28T00:54:32.483Z,12.57
2018-01-28T00:56:59.986Z,13.55
2018-01-28T00:59:27.576Z,21.67
2018-01-28T01:01:55.136Z,10.60
2018-01-28T01:04:22.699Z,14.55
2018-01-28T01:06:50.308Z,13.10
2018-01-28T01:09:17.963Z,15.77
2018-01-28T01:11:45.523Z,19.42
2018-01-28T01:14:13.628Z,15.10
2018-01-28T01:16:41.174Z,13.93
2018-01-28T01:19:09.179Z,18.02
2018-01-28T01:21:36.679Z,15.15
2018-01-28T01:24:04.326Z,17.92
2018-01-28T01:26:31.848Z,13.52
2018-01-28T01:28:59.438Z,14.65
2018-01-28T01:31:26.912Z,18.25
2018-01-28T01:33:55.404Z,21.23
2018-01-28T01:36:32.904Z,14.75
2018-01-28T01:39:00.552Z,18.05
2018-01-28T01:41:28.065Z,14.68
2018-01-28T01:43:55.715Z,14.65
2018-01-28T01:46:23.219Z,16.35
2018-01-28T01:48:50.778Z,14.35
2018-01-28T01:51:19.074Z,12.95
2018-01-28T01:53:46.635Z,10.88
2018-01-28T01:56:14.143Z,14.10
2018-01-28T01:58:41.663Z,13.05
2018-01-28T02:01:09.164Z,14.98
2018-01-28T02:03:36.710Z,13.65
2018-01-28T02:06:04.242Z,14.87
2018-01-28T02:08:31.868Z,13.98
2018-01-28T02:10:59.396Z,19.67
2018-01-28T02:13:27.017Z,20.55
2018-01-28T02:15:54.552Z,15.05
2018-01-28T02:18:23.090Z,16.50
2018-01-28T02:20:50.589Z,14.27
2018-01-28T02:23:18.151Z,15.65
2018-01-28T02:25:45.811Z,21.92
2018-01-28T02:28:13.351Z,14.15
2018-01-28T02:30:41.660Z,15.20
2018-01-28T02:33:09.192Z,14.90
2018-01-28T02:35:37.487Z,10.93
2018-01-28T02:38:05.052Z,12.68
2018-01-28T02:40:32.564Z,14.82
2018-01-28T02:43:00.164Z,13.40
2018-01-28T02:45:27.677Z,10.10
2018-01-28T02:47:55.284Z,14.80
2018-01-28T02:50:22.912Z,9.75
2018-01-28T02:52:51.312Z,11.85
2018-01-28T02:55:19.582Z,13.80
2018-01-28T02:57:47.882Z,9.73
2018-01-28T03:00:15.407Z,9.77
2018-01-28T03:02:42.963Z,9.07
2018-01-28T03:05:11.235Z,6.28
2018-01-28T03:07:38.762Z,15.20
2018-01-28T03:10:06.274Z,8.18
2018-01-28T03:12:33.808Z,4.05
2018-01-28T03:15:01.329Z,5.72
2018-01-28T03:17:28.871Z,3.95
2018-01-28T03:19:56.498Z,2.65
2018-01-28T03:22:24.798Z,4.15
2018-01-28T03:24:52.302Z,2.25
2018-01-28T03:27:19.847Z,2.60
2018-01-28T03:29:47.353Z,2.75
2018-01-28T03:32:15.695Z,2.67
2018-01-28T03:34:43.202Z,2.70
2018-01-28T03:37:11.492Z,1.70
2018-01-28T03:39:39.026Z,2.30
2018-01-28T03:42:07.516Z,2.55
2018-01-28T03:44:35.017Z,1.60
2018-01-28T03:47:02.591Z,1.83
2018-01-28T03:49:30.156Z,2.25
2018-01-28T03:51:57.677Z,3.10
2018-01-28T03:54:25.188Z,1.40
2018-01-28T03:56:52.707Z,1.87
2018-01-28T03:59:20.250Z,1.52
2018-01-28T04:01:47.790Z,2.00
2018-01-28T04:04:16.055Z,1.85
2018-01-28T04:06:44.371Z,1.30
2018-01-28T04:09:11.913Z,2.60
2018-01-28T04:11:39.441Z,1.40
2018-01-28T04:14:07.741Z,1.50
2018-01-28T04:16:36.856Z,1.27
2018-01-28T04:19:04.358Z,1.92
2018-01-28T04:21:31.896Z,1.25
2018-01-28T04:23:59.391Z,1.17
2018-01-28T04:26:27.821Z,2.10
2018-01-28T04:28:55.324Z,3.35
2018-01-28T04:31:22.866Z,2.25
2018-01-28T04:33:50.474Z,1.67
2018-01-28T04:36:18.255Z,5.68
2018-01-28T04:38:45.756Z,1.20
2018-01-28T04:41:13.289Z,1.55
2018-01-28T04:43:40.862Z,2.03
2018-01-28T04:46:08.402Z,1.70
2018-01-28T04:48:35.933Z,2.25
2018-01-28T04:51:03.497Z,2.15
2018-01-28T04:53:31.150Z,2.85
2018-01-28T04:55:58.690Z,1.00
2018-01-28T04:58:26.966Z,8.27
2018-01-28T05:00:55.274Z,1.50
2018-01-28T05:03:22.777Z,2.33
2018-01-28T05:05:50.295Z,1.20
2018-01-28T05:08:17.795Z,2.00
2018-01-28T05:10:45.314Z,2.55
2018-01-28T05:13:12.900Z,1.33
2018-01-28T05:15:40.459Z,3.40
2018-01-28T05:18:07.975Z,4.40
2018-01-28T05:20:35.523Z,1.00
2018-01-28T05:23:03.798Z,1.75
2018-01-28T05:25:32.114Z,1.20
2018-01-28T05:27:59.754Z,2.85
2018-01-28T05:30:27.308Z,4.55
2018-01-28T05:32:54.808Z,1.98
2018-01-28T05:35:22.453Z,1.10
2018-01-28T05:37:49.956Z,1.30
2018-01-28T05:40:17.476Z,4.20
2018-01-28T05:42:45.004Z,3.45
2018-01-28T05:45:12.563Z,1.05
2018-01-28T05:47:40.795Z,1.50
2018-01-28T05:50:08.372Z,0.93
2018-01-28T05:52:36.648Z,1.33
2018-01-28T05:55:08.836Z,1.12
2018-01-28T05:57:37.182Z,2.30
2018-01-28T06:00:04.719Z,1.40
2018-01-28T06:02:32.239Z,1.08
2018-01-28T06:04:59.772Z,1.98
2018-01-28T06:07:28.045Z,1.92
2018-01-28T06:09:55.586Z,1.02
2018-01-28T06:12:23.199Z,1.20
2018-01-28T06:14:50.756Z,0.60
2018-01-28T06:17:18.269Z,1.17
2018-01-28T06:19:45.986Z,1.62
2018-01-28T06:22:13.514Z,1.05
2018-01-28T06:24:41.840Z,0.80
2018-01-28T06:27:09.337Z,0.80
2018-01-28T06:29:37.647Z,3.62
2018-01-28T06:32:05.169Z,5.43
2018-01-28T06:34:32.778Z,1.00
2018-01-28T06:37:00.288Z,1.10
2018-01-28T06:39:27.808Z,1.95
2018-01-28T06:41:55.331Z,1.27
2018-01-28T06:44:23.635Z,1.20
2018-01-28T06:46:51.138Z,1.50
2018-01-28T06:49:18.652Z,1.05
2018-01-28T06:51:46.222Z,1.42
2018-01-28T06:54:13.767Z,0.82
2018-01-28T06:56:41.311Z,1.50
2018-01-28T06:59:08.851Z,1.20
2018-01-28T07:01:37.161Z,1.80
2018-01-28T07:04:04.680Z,2.35
2018-01-28T07:06:33.084Z,0.90
2018-01-28T07:09:00.615Z,1.58
2018-01-28T07:11:28.877Z,1.80
2018-01-28T07:13:56.418Z,0.70
2018-01-28T07:16:23.928Z,0.95
2018-01-28T07:18:51.530Z,0.80
2018-01-28T07:21:19.045Z,0.98
2018-01-28T07:23:46.575Z,1.02
2018-01-28T07:26:14.108Z,1.00
2018-01-28T07:28:41.724Z,2.85
2018-01-28T07:31:09.242Z,2.42
2018-01-28T07:33:36.807Z,1.85
2018-01-28T07:36:04.339Z,2.05
2018-01-28T07:38:31.870Z,3.00
2018-01-28T07:40:59.414Z,2.40
2018-01-28T07:43:28.725Z,3.00
2018-01-28T07:45:56.269Z,10.02
2018-01-28T07:48:34.483Z,2.58
2018-01-28T07:51:02.761Z,3.50
2018-01-28T07:53:31.060Z,3.20
2018-01-28T07:55:58.718Z,4.00
2018-01-28T07:58:26.272Z,8.70
2018-01-28T08:00:53.779Z,3.60
2018-01-28T08:03:21.397Z,5.57
2018-01-28T08:05:48.913Z,3.72
2018-01-28T08:08:16.451Z,6.37
2018-01-28T08:10:58.725Z,6.10
2018-01-28T08:13:30.750Z,8.05
2018-01-28T08:15:59.009Z,8.32
2018-01-28T08:18:26.559Z,5.57
2018-01-28T08:20:55.322Z,4.90
2018-01-28T08:23:22.874Z,6.43
2018-01-28T08:25:50.492Z,8.68
2018-01-28T08:28:23.597Z,9.13
2018-01-28T08:30:51.894Z,6.10
2018-01-28T08:33:19.440Z,7.55
2018-01-28T08:35:48.166Z,7.40
2018-01-28T08:38:15.724Z,6.10
2018-01-28T08:40:43.455Z,9.85
2018-01-28T08:43:10.983Z,9.32
2018-01-28T08:45:39.297Z,6.60
2018-01-28T08:48:06.896Z,10.95
2018-01-28T08:50:34.400Z,6.95
2018-01-28T08:53:01.979Z,11.00
2018-01-28T08:55:29.481Z,8.30
2018-01-28T08:57:57.015Z,7.25
2018-01-28T09:00:24.542Z,6.75
2018-01-28T09:02:52.112Z,9.82
2018-01-28T09:05:19.651Z,6.03
2018-01-28T09:07:47.211Z,9.95
2018-01-28T09:10:14.791Z,6.82
2018-01-28T09:12:42.328Z,6.62
2018-01-28T09:15:10.607Z,7.75
2018-01-28T09:17:38.188Z,7.75
2018-01-28T09:20:05.695Z,7.65
2018-01-28T09:22:33.233Z,10.93
2018-01-28T09:25:00.741Z,11.80
2018-01-28T09:27:29.070Z,11.12
2018-01-28T09:29:56.608Z,10.52
2018-01-28T09:32:24.136Z,8.75
2018-01-28T09:34:51.651Z,7.95
2018-01-28T09:37:19.202Z,8.35
2018-01-28T09:39:46.764Z,10.50
2018-01-28T09:42:14.484Z,8.60
2018-01-28T09:44:42.027Z,6.60
2018-01-28T09:47:10.411Z,7.45
2018-01-28T09:49:38.695Z,7.35
2018-01-28T09:52:06.230Z,7.25
2018-01-28T09:54:33.870Z,8.80
2018-01-28T09:57:01.416Z,7.97
2018-01-28T09:59:28.935Z,11.32
2018-01-28T10:01:56.471Z,11.93
2018-01-28T10:04:24.783Z,12.57
2018-01-28T10:06:52.330Z,8.10
2018-01-28T10:09:19.880Z,9.93
2018-01-28T10:11:48.194Z,9.35
2018-01-28T10:14:15.719Z,10.07
2018-01-28T10:16:43.287Z,9.55
2018-01-28T10:19:10.835Z,13.18
2018-01-28T10:21:39.276Z,8.23
2018-01-28T10:24:07.084Z,10.05
2018-01-28T10:26:35.631Z,17.40
2018-01-28T10:29:03.276Z,11.95
2018-01-28T10:31:30.907Z,10.93
2018-01-28T10:33:58.425Z,10.13
2018-01-28T10:36:26.004Z,12.15
2018-01-28T10:38:54.301Z,16.60
2018-01-28T10:41:21.843Z,9.68
2018-01-28T10:43:49.437Z,9.65
2018-01-28T10:46:16.998Z,9.65
2018-01-28T10:48:44.826Z,9.68
2018-01-28T10:51:12.410Z,11.05
2018-01-28T10:53:39.947Z,11.23
2018-01-28T10:56:07.515Z,8.60
2018-01-28T10:58:35.021Z,15.65
2018-01-28T11:01:02.851Z,12.70
2018-01-28T11:03:30.382Z,9.98
2018-01-28T11:05:58.838Z,12.93
2018-01-28T11:08:26.362Z,11.65
2018-01-28T11:10:53.887Z,12.27
2018-01-28T11:13:21.608Z,9.82
2018-01-28T11:15:49.260Z,13.73
2018-01-28T11:18:16.797Z,13.25
2018-01-28T11:20:44.393Z,13.90
2018-01-28T11:23:11.895Z,12.55
2018-01-28T11:25:39.446Z,11.20
2018-01-28T11:28:07.843Z,10.85
2018-01-28T11:30:35.382Z,12.15
2018-01-28T11:33:03.020Z,11.43
2018-01-28T11:35:30.631Z,13.57
2018-01-28T11:37:58.197Z,10.93
2018-01-28T11:40:25.737Z,11.52
2018-01-28T11:42:53.390Z,14.18
2018-01-28T11:45:20.939Z,11.32
2018-01-28T11:47:49.407Z,14.68
2018-01-28T11:50:17.104Z,12.25
2018-01-28T11:52:44.670Z,15.88
2018-01-28T11:55:12.174Z,9.65
2018-01-28T11:57:39.735Z,11.82
2018-01-28T12:00:07.277Z,16.48
2018-01-28T12:02:34.816Z,10.30
2018-01-28T12:05:02.379Z,14.23
2018-01-28T12:07:29.900Z,10.65
2018-01-28T12:09:57.423Z,11.05
2018-01-28T12:12:25.035Z,7.85
2018-01-28T12:14:52.497Z,12.40
2018-01-28T12:17:20.221Z,7.40
2018-01-28T12:19:47.770Z,12.93
2018-01-28T12:22:15.338Z,11.68
2018-01-28T12:24:42.873Z,8.57
2018-01-28T12:27:10.425Z,14.38
2018-01-28T12:29:37.959Z,7.22
2018-01-28T12:32:06.519Z,8.48
2018-01-28T12:34:35.235Z,8.60
2018-01-28T12:37:04.806Z,7.95
2018-01-28T12:39:33.088Z,11.80
2018-01-28T12:42:00.647Z,6.72
2018-01-28T12:44:28.171Z,9.43
2018-01-28T12:46:55.738Z,8.88
2018-01-28T12:49:23.248Z,10.35
2018-01-28T12:51:50.911Z,16.20
2018-01-28T12:54:18.477Z,7.72
2018-01-28T12:56:47.151Z,4.90
2018-01-28T12:59:14.651Z,10.13
2018-01-28T13:01:42.374Z,8.68
2018-01-28T13:04:11.845Z,6.43
2018-01-28T13:06:40.198Z,8.38
2018-01-28T13:09:09.818Z,6.70
2018-01-28T13:11:37.605Z,8.82
2018-01-28T13:14:05.219Z,7.70
2018-01-28T13:16:32.810Z,7.78
2018-01-28T13:19:01.958Z,4.95
2018-01-28T13:21:29.510Z,5.18
2018-01-28T13:23:57.036Z,8.93
2018-01-28T13:26:24.727Z,7.07
2018-01-28T13:28:52.251Z,7.78
2018-01-28T13:31:20.666Z,4.15
2018-01-28T13:33:48.198Z,7.15
2018-01-28T13:36:16.602Z,8.15
2018-01-28T13:38:44.163Z,5.30
2018-01-28T13:41:11.707Z,5.37
2018-01-28T13:43:39.244Z,10.18
2018-01-28T13:46:07.570Z,8.75
2018-01-28T13:48:35.128Z,5.05
2018-01-28T13:51:02.700Z,6.45
2018-01-28T13:53:30.441Z,6.97
2018-01-28T13:55:57.959Z,7.50
2018-01-28T13:58:26.349Z,8.07
2018-01-28T14:00:57.001Z,5.93
2018-01-28T14:03:24.566Z,5.12
2018-01-28T14:05:52.078Z,8.13
2018-01-28T14:08:19.746Z,9.75
2018-01-28T14:10:47.323Z,7.62
2018-01-28T14:13:14.887Z,4.87
2018-01-28T14:15:43.233Z,9.70
2018-01-28T14:18:11.583Z,9.52
2018-01-28T14:20:39.086Z,7.15
2018-01-28T14:23:07.406Z,7.78
2018-01-28T14:25:34.928Z,4.80
2018-01-28T14:28:03.254Z,6.22
2018-01-28T14:30:30.758Z,12.02
2018-01-28T14:32:59.092Z,9.93
2018-01-28T14:35:26.704Z,6.07
2018-01-28T14:37:55.096Z,6.65
2018-01-28T14:40:22.608Z,10.77
2018-01-28T14:42:50.179Z,7.25
2018-01-28T14:45:17.745Z,6.70
2018-01-28T14:47:45.340Z,11.77
2018-01-28T14:50:12.935Z,7.78
2018-01-28T14:52:40.479Z,10.88
2018-01-28T14:55:08.019Z,13.07
2018-01-28T14:57:35.563Z,7.90
2018-01-28T15:00:03.074Z,5.20
2018-01-28T15:02:30.670Z,10.57
2018-01-28T15:04:58.981Z,6.78
2018-01-28T15:07:26.543Z,8.20
2018-01-28T15:09:54.115Z,6.20
2018-01-28T15:12:21.751Z,9.25
2018-01-28T15:14:49.322Z,12.40
2018-01-28T15:17:16.883Z,9.85
2018-01-28T15:19:44.449Z,8.40
2018-01-28T15:22:11.990Z,6.35
2018-01-28T15:24:39.693Z,6.22
2018-01-28T15:27:07.236Z,7.95
2018-01-28T15:29:34.792Z,10.38
2018-01-28T15:32:02.351Z,5.80
2018-01-28T15:34:29.907Z,8.70
2018-01-28T15:36:57.489Z,9.50
2018-01-28T15:39:25.000Z,6.95
2018-01-28T15:41:53.299Z,7.87
2018-01-28T15:44:20.846Z,10.32
2018-01-28T15:46:48.383Z,7.37
2018-01-28T15:49:16.675Z,11.77
2018-01-28T15:51:44.270Z,9.07
2018-01-28T15:54:11.812Z,8.27
2018-01-28T15:56:39.384Z,9.88
2018-01-28T15:59:06.891Z,9.98
2018-01-28T16:01:35.209Z,9.27
2018-01-28T16:04:02.739Z,10.88
2018-01-28T16:06:31.048Z,6.45
2018-01-28T16:08:58.600Z,8.00
2018-01-28T16:11:26.154Z,7.62
2018-01-28T16:13:53.663Z,7.60
2018-01-28T16:16:21.197Z,6.87
2018-01-28T16:18:48.746Z,9.43
2018-01-28T16:21:16.393Z,9.38
2018-01-28T16:23:43.998Z,7.97
2018-01-28T16:26:11.568Z,12.35
2018-01-28T16:28:39.099Z,12.43
2018-01-28T16:31:06.729Z,12.52
2018-01-28T16:33:34.261Z,9.30
2018-01-28T16:36:02.538Z,11.12
2018-01-28T16:38:30.857Z,10.10
2018-01-28T16:40:58.389Z,6.28
2018-01-28T16:43:26.705Z,6.65
2018-01-28T16:45:54.234Z,9.55
2018-01-28T16:48:21.779Z,7.57
2018-01-28T16:50:50.080Z,8.05
2018-01-28T16:53:17.709Z,6.28
2018-01-28T16:55:46.197Z,8.20
2018-01-28T16:58:23.808Z,7.70
2018-01-28T17:00:51.380Z,7.45
2018-01-28T17:03:19.039Z,8.32
2018-01-28T17:05:46.546Z,7.95
2018-01-28T17:08:15.633Z,10.50
2018-01-28T17:10:43.154Z,7.15
2018-01-28T17:13:10.704Z,7.85
2018-01-28T17:15:38.457Z,8.70
2018-01-28T17:18:06.001Z,7.55
2018-01-28T17:20:34.302Z,8.00
2018-01-28T17:23:01.890Z,8.73
2018-01-28T17:25:29.434Z,5.22
2018-01-28T17:27:56.990Z,10.05
2018-01-28T17:30:24.558Z,5.90
2018-01-28T17:32:52.119Z,11.18
2018-01-28T17:35:25.201Z,6.25
2018-01-28T17:37:52.745Z,4.10
2018-01-28T17:40:20.259Z,10.48
2018-01-28T17:42:47.800Z,6.12
2018-01-28T17:45:15.322Z,4.72
2018-01-28T17:47:42.893Z,6.90
2018-01-28T17:50:10.451Z,7.68
2018-01-28T17:52:39.915Z,10.05
2018-01-28T17:55:08.212Z,13.52
2018-01-28T17:57:35.762Z,7.10
2018-01-28T18:00:04.307Z,8.60
2018-01-28T18:02:31.995Z,4.53
2018-01-28T18:05:00.299Z,48.63
2018-01-28T18:07:27.898Z,6.12
2018-01-28T18:09:55.354Z,5.60
2018-01-28T18:12:22.985Z,7.87
2018-01-28T18:14:50.511Z,9.32
2018-01-28T18:17:18.841Z,6.37
2018-01-28T18:19:46.509Z,12.68
2018-01-28T18:22:14.072Z,7.53
2018-01-28T18:24:41.626Z,8.25
2018-01-28T18:27:09.172Z,6.97
2018-01-28T18:29:36.781Z,5.40
2018-01-28T18:32:04.324Z,6.40
2018-01-28T18:34:31.876Z,8.15
2018-01-28T18:36:59.420Z,7.68
2018-01-28T18:39:26.974Z,15.32
2018-01-28T18:41:54.635Z,7.30
2018-01-28T18:44:22.161Z,16.00
2018-01-28T18:46:50.513Z,7.15
2018-01-28T18:49:18.024Z,6.40
2018-01-28T18:51:45.624Z,8.20
2018-01-28T18:54:13.162Z,6.90
2018-01-28T18:56:40.801Z,16.20
2018-01-28T18:59:08.361Z,8.35
2018-01-28T19:01:35.932Z,11.85
2018-01-28T19:04:03.474Z,9.93
2018-01-28T19:06:31.012Z,8.93
2018-01-28T19:08:59.313Z,13.60
2018-01-28T19:11:26.875Z,10.32
2018-01-28T19:13:54.413Z,15.80
2018-01-28T19:16:22.710Z,12.05
2018-01-28T19:18:51.583Z,9.82
2018-01-28T19:21:19.177Z,9.95
2018-01-28T19:23:46.699Z,9.90
2018-01-28T19:26:15.013Z,13.52
2018-01-28T19:28:42.522Z,11.98
2018-01-28T19:31:10.826Z,12.13
2018-01-28T19:33:38.364Z,9.65
2018-01-28T19:36:06.704Z,20.67
2018-01-28T19:38:34.323Z,7.68
2018-01-28T19:41:01.889Z,12.82
2018-01-28T19:43:29.578Z,13.60
2018-01-28T19:45:57.282Z,21.08
2018-01-28T19:48:25.608Z,15.65
2018-01-28T19:50:53.244Z,13.32
2018-01-28T19:53:21.840Z,16.83
2018-01-28T19:55:49.371Z,9.60
2018-01-28T19:58:17.675Z,9.38
2018-01-28T20:00:45.288Z,11.20
2018-01-28T20:03:12.932Z,19.05
2018-01-28T20:05:40.706Z,7.60
2018-01-28T20:08:08.231Z,10.65
2018-01-28T20:10:35.779Z,9.43
2018-01-28T20:13:05.027Z,8.32
2018-01-28T20:15:32.626Z,12.93
2018-01-28T20:18:00.164Z,8.10
2018-01-28T20:20:28.538Z,11.50
2018-01-28T20:22:56.817Z,9.40
2018-01-28T20:25:25.133Z,8.07
2018-01-28T20:27:52.650Z,10.05
2018-01-28T20:30:21.072Z,9.10
2018-01-28T20:32:48.591Z,8.50
2018-01-28T20:35:17.002Z,7.87
2018-01-28T20:37:48.502Z,8.40
2018-01-28T20:40:16.073Z,7.72
2018-01-28T20:42:43.611Z,7.30
2018-01-28T20:45:11.233Z,7.32
2018-01-28T20:47:38.766Z,7.97
2018-01-28T20:50:07.218Z,9.02
2018-01-28T20:52:34.740Z,7.57
2018-01-28T20:55:02.381Z,7.00
2018-01-28T20:57:29.875Z,7.00
2018-01-28T20:59:57.432Z,6.95
2018-01-28T21:02:24.952Z,7.40
2018-01-28T21:04:52.500Z,8.38
2018-01-28T21:07:20.905Z,7.87
2018-01-28T21:09:48.465Z,6.97
2018-01-28T21:12:16.025Z,8.27
2018-01-28T21:14:45.394Z,7.37
2018-01-28T21:17:13.686Z,9.02
2018-01-28T21:19:41.222Z,7.25
2018-01-28T21:22:11.019Z,8.60
2018-01-28T21:24:40.294Z,7.45
2018-01-28T21:27:07.935Z,6.87
2018-01-28T21:29:35.600Z,7.15
2018-01-28T21:32:03.166Z,7.15
2018-01-28T21:34:30.695Z,7.47
2018-01-28T21:36:59.008Z,5.20
2018-01-28T21:39:26.547Z,6.32
2018-01-28T21:41:54.191Z,9.35
2018-01-28T21:44:22.474Z,6.70
2018-01-28T21:46:50.841Z,6.65
2018-01-28T21:49:19.116Z,8.77
2018-01-28T21:51:47.524Z,5.00
2018-01-28T21:54:15.032Z,5.05
2018-01-28T21:56:42.647Z,7.32
2018-01-28T21:59:10.185Z,11.63
2018-01-28T22:01:37.770Z,6.30
2018-01-28T22:04:05.289Z,5.43
2018-01-28T22:06:33.634Z,6.80
2018-01-28T22:09:01.111Z,5.60
2018-01-28T22:11:28.721Z,5.87
2018-01-28T22:13:56.265Z,5.70
2018-01-28T22:16:24.616Z,6.00
2018-01-28T22:18:53.162Z,5.28
2018-01-28T22:21:21.542Z,6.07
2018-01-28T22:23:49.177Z,7.95
2018-01-28T22:26:16.751Z,9.02
2018-01-28T22:28:44.299Z,7.53
2018-01-28T22:31:11.886Z,5.55
2018-01-28T22:33:39.397Z,8.52
2018-01-28T22:36:06.947Z,6.53
2018-01-28T22:38:35.263Z,6.22
2018-01-28T22:41:02.914Z,10.85
2018-01-28T22:43:30.414Z,8.93
2018-01-28T22:45:58.042Z,6.25
2018-01-28T22:48:26.130Z,6.50
2018-01-28T22:50:53.906Z,6.68
2018-01-28T22:53:21.445Z,7.53
2018-01-28T22:55:48.988Z,7.28
2018-01-28T22:58:16.499Z,8.50
2018-01-28T23:00:44.105Z,7.20
2018-01-28T23:03:11.617Z,9.80
2018-01-28T23:05:39.174Z,6.87
2018-01-28T23:08:06.700Z,5.95
2018-01-28T23:10:34.246Z,11.18
2018-01-28T23:13:01.805Z,6.97
2018-01-28T23:15:29.327Z,6.87
2018-01-28T23:17:57.611Z,8.60
2018-01-28T23:20:25.150Z,8.27
2018-01-28T23:22:52.695Z,9.45
2018-01-28T23:25:20.266Z,8.05
2018-01-28T23:27:47.803Z,6.72
2018-01-28T23:30:15.418Z,10.95
2018-01-28T23:32:42.919Z,8.75
2018-01-28T23:35:10.534Z,8.13
2018-01-28T23:37:38.097Z,8.70
2018-01-28T23:40:05.627Z,8.50
2018-01-28T23:42:33.933Z,9.60
2018-01-28T23:45:01.459Z,6.55
2018-01-28T23:47:28.974Z,11.45
2018-01-28T23:49:56.512Z,6.15
2018-01-28T23:52:24.972Z,6.47
2018-01-28T23:54:53.283Z,6.60
2018-01-28T23:57:20.834Z,7.55
2018-01-28T23:59:48.370Z,6.72
